createdAt,value
2019-02-12T00:01:24.565Z,0.40
2019-02-12T00:03:55.191Z,0.60
2019-02-12T00:06:25.965Z,0.20
2019-02-12T00:08:56.349Z,0.47
2019-02-12T00:11:26.743Z,0.33
2019-02-12T00:13:57.293Z,1.50
2019-02-12T00:16:27.864Z,0.63
2019-02-12T00:18:59.617Z,0.43
2019-02-12T00:21:29.871Z,0.43
2019-02-12T00:24:00.174Z,0.50
2019-02-12T00:26:30.532Z,0.20
2019-02-12T00:29:00.976Z,0.20
2019-02-12T00:31:31.335Z,0.80
2019-02-12T00:34:01.563Z,0.20
2019-02-12T00:36:31.842Z,0.20
2019-02-12T00:39:02.234Z,0.47
2019-02-12T00:41:32.555Z,1.40
2019-02-12T00:44:02.877Z,0.30
2019-02-12T00:46:33.188Z,0.80
2019-02-12T00:49:03.467Z,0.80
2019-02-12T00:51:33.870Z,0.50
2019-02-12T00:54:04.139Z,0.10
2019-02-12T00:56:34.439Z,0.30
2019-02-12T00:59:04.742Z,0.10
2019-02-12T01:01:35.147Z,0.00
2019-02-12T01:04:05.456Z,0.50
2019-02-12T01:06:35.676Z,0.43
2019-02-12T01:09:07.008Z,0.10
2019-02-12T01:11:37.258Z,0.30
2019-02-12T01:14:07.477Z,0.93
2019-02-12T01:16:37.781Z,0.20
2019-02-12T01:19:08.203Z,0.00
2019-02-12T01:21:38.591Z,0.30
2019-02-12T01:24:08.951Z,0.50
2019-02-12T01:26:39.220Z,0.80
2019-02-12T01:29:09.561Z,0.40
2019-02-12T01:31:39.923Z,0.80
2019-02-12T01:34:10.184Z,0.40
2019-02-12T01:36:40.383Z,0.20
2019-02-12T01:39:12.874Z,2.27
2019-02-12T01:41:43.227Z,0.30
2019-02-12T01:44:13.726Z,0.40
2019-02-12T01:46:44.023Z,0.10
2019-02-12T01:49:14.402Z,0.80
2019-02-12T01:51:44.666Z,0.10
2019-02-12T01:54:14.962Z,0.40
2019-02-12T01:56:45.326Z,0.20
2019-02-12T01:59:15.724Z,0.80
2019-02-12T02:01:46.226Z,0.37
2019-02-12T02:04:16.425Z,0.53
2019-02-12T02:06:46.750Z,0.40
2019-02-12T02:09:17.186Z,1.33
2019-02-12T02:11:47.518Z,1.03
2019-02-12T02:14:17.953Z,0.60
2019-02-12T02:16:48.303Z,0.97
2019-02-12T02:19:18.550Z,0.40
2019-02-12T02:21:48.803Z,0.50
2019-02-12T02:24:19.275Z,0.37
2019-02-12T02:26:49.511Z,1.30
2019-02-12T02:29:19.732Z,0.33
2019-02-12T02:31:50.057Z,0.40
2019-02-12T02:34:20.316Z,0.70
2019-02-12T02:36:50.498Z,1.00
2019-02-12T02:39:20.806Z,0.23
2019-02-12T02:41:51.075Z,0.23
2019-02-12T02:44:21.400Z,0.90
2019-02-12T02:46:51.903Z,1.67
2019-02-12T02:49:22.099Z,0.40
2019-02-12T02:51:53.993Z,0.13
2019-02-12T02:54:24.298Z,1.40
2019-02-12T02:56:54.656Z,1.60
2019-02-12T02:59:25.081Z,1.07
2019-02-12T03:01:55.527Z,0.30
2019-02-12T03:04:25.803Z,0.03
2019-02-12T03:06:55.979Z,0.77
2019-02-12T03:09:26.365Z,0.60
2019-02-12T03:11:56.573Z,3.53
2019-02-12T03:14:26.807Z,0.87
2019-02-12T03:16:57.131Z,0.50
2019-02-12T03:19:27.364Z,1.93
2019-02-12T03:22:03.479Z,0.90
2019-02-12T03:24:29.595Z,0.90
2019-02-12T03:26:59.836Z,2.17
2019-02-12T03:29:30.092Z,0.43
2019-02-12T03:32:00.491Z,1.63
2019-02-12T03:34:30.776Z,1.27
2019-02-12T03:37:01.036Z,0.67
2019-02-12T03:39:31.337Z,1.53
2019-02-12T03:42:01.626Z,0.43
2019-02-12T03:44:31.906Z,0.57
2019-02-12T03:47:02.214Z,0.33
2019-02-12T03:49:32.651Z,0.20
2019-02-12T03:52:02.922Z,0.07
2019-02-12T03:54:33.671Z,0.60
2019-02-12T03:57:04.068Z,0.50
2019-02-12T03:59:34.590Z,0.57
2019-02-12T04:02:04.944Z,0.10
2019-02-12T04:04:35.463Z,0.30
2019-02-12T04:07:05.733Z,0.10
2019-02-12T04:09:35.954Z,2.50
2019-02-12T04:12:06.211Z,1.23
2019-02-12T04:14:36.550Z,0.93
2019-02-12T04:17:06.892Z,1.43
2019-02-12T04:19:37.163Z,0.73
2019-02-12T04:22:07.414Z,1.43
2019-02-12T04:24:37.796Z,0.50
2019-02-12T04:27:08.270Z,1.70
2019-02-12T04:29:38.537Z,0.47
2019-02-12T04:32:08.851Z,0.87
2019-02-12T04:34:39.137Z,0.60
2019-02-12T04:37:09.538Z,0.40
2019-02-12T04:39:39.701Z,0.90
2019-02-12T04:42:10.008Z,0.63
2019-02-12T04:44:40.332Z,0.63
2019-02-12T04:47:10.965Z,2.13
2019-02-12T04:49:41.136Z,2.10
2019-02-12T04:52:12.435Z,0.63
2019-02-12T04:54:42.748Z,1.23
2019-02-12T04:57:13.040Z,2.00
2019-02-12T04:59:43.297Z,1.10
2019-02-12T05:02:13.695Z,1.67
2019-02-12T05:04:43.926Z,1.23
2019-02-12T05:07:14.116Z,1.23
2019-02-12T05:09:45.786Z,0.60
2019-02-12T05:12:17.682Z,0.50
2019-02-12T05:14:48.093Z,0.93
2019-02-12T05:17:18.634Z,1.80
2019-02-12T05:19:48.919Z,1.00
2019-02-12T05:22:19.135Z,1.53
2019-02-12T05:24:49.459Z,1.27
2019-02-12T05:27:19.809Z,0.80
2019-02-12T05:29:50.381Z,0.57
2019-02-12T05:32:20.731Z,0.40
2019-02-12T05:34:51.991Z,1.00
2019-02-12T05:37:22.644Z,1.00
2019-02-12T05:39:53.049Z,1.07
2019-02-12T05:42:23.471Z,1.90
2019-02-12T05:44:53.845Z,2.73
2019-02-12T05:47:24.154Z,4.20
2019-02-12T05:49:54.451Z,0.83
2019-02-12T05:52:25.520Z,3.77
2019-02-12T05:54:59.252Z,0.90
2019-02-12T05:57:29.627Z,3.57
2019-02-12T06:00:01.665Z,0.80
2019-02-12T06:02:32.211Z,0.90
2019-02-12T06:05:02.472Z,0.87
2019-02-12T06:07:32.743Z,0.87
2019-02-12T06:10:03.095Z,1.07
2019-02-12T06:12:33.332Z,2.20
2019-02-12T06:15:03.669Z,3.20
2019-02-12T06:17:34.058Z,5.50
2019-02-12T06:20:05.284Z,6.63
2019-02-12T06:22:35.545Z,8.00
2019-02-12T06:25:07.973Z,5.07
2019-02-12T06:27:37.996Z,9.43
2019-02-12T06:30:08.748Z,5.93
2019-02-12T06:32:39.305Z,10.30
2019-02-12T06:35:09.796Z,6.27
2019-02-12T06:37:39.948Z,7.30
2019-02-12T06:40:10.595Z,6.13
2019-02-12T06:42:40.816Z,3.73
2019-02-12T06:45:11.279Z,4.10
2019-02-12T06:47:41.755Z,5.73
2019-02-12T06:50:11.930Z,9.00
2019-02-12T06:52:42.344Z,5.57
2019-02-12T06:55:12.937Z,6.70
2019-02-12T06:57:44.254Z,4.60
2019-02-12T07:00:14.755Z,4.97
2019-02-12T07:03:07.252Z,3.63
2019-02-12T07:05:37.577Z,3.07
2019-02-12T07:08:51.390Z,4.80
2019-02-12T07:11:48.213Z,5.57
2019-02-12T07:14:42.744Z,3.20
2019-02-12T07:17:56.593Z,5.83
2019-02-12T07:21:00.008Z,6.13
2019-02-12T07:24:05.904Z,4.07
2019-02-12T07:27:10.053Z,5.93
2019-02-12T07:30:25.655Z,5.13
2019-02-12T07:33:33.451Z,3.70
2019-02-12T07:36:29.839Z,4.53
2019-02-12T07:39:45.682Z,4.03
2019-02-12T07:42:43.495Z,1.93
2019-02-12T07:45:44.963Z,6.30
2019-02-12T07:48:52.054Z,2.77
2019-02-12T07:51:48.609Z,1.77
2019-02-12T07:54:55.301Z,1.93
2019-02-12T07:58:04.216Z,2.57
2019-02-12T08:01:01.243Z,1.77
2019-02-12T08:04:27.107Z,4.50
2019-02-12T08:07:08.607Z,3.47
2019-02-12T08:10:02.469Z,2.73
2019-02-12T08:12:58.749Z,2.37
2019-02-12T08:15:52.063Z,1.63
2019-02-12T08:18:40.258Z,2.53
2019-02-12T08:21:35.308Z,3.20
2019-02-12T08:24:55.501Z,0.93
2019-02-12T08:28:16.878Z,1.70
2019-02-12T08:31:22.713Z,3.67
2019-02-12T08:34:10.696Z,1.70
2019-02-12T08:37:18.208Z,1.70
2019-02-12T08:40:12.989Z,1.93
2019-02-12T08:42:48.996Z,1.70
2019-02-12T08:46:03.931Z,5.60
2019-02-12T08:49:03.543Z,2.07
2019-02-12T08:51:58.135Z,1.47
2019-02-12T08:54:55.388Z,12.20
2019-02-12T08:58:01.736Z,3.17
2019-02-12T09:01:04.348Z,2.30
2019-02-12T09:04:19.516Z,3.83
2019-02-12T09:07:45.832Z,2.03
2019-02-12T09:10:41.466Z,3.00
2019-02-12T09:13:51.492Z,1.90
2019-02-12T09:17:07.588Z,1.97
2019-02-12T09:20:12.800Z,3.30
2019-02-12T09:23:19.688Z,2.47
2019-02-12T09:26:21.475Z,2.57
2019-02-12T09:29:20.851Z,4.27
2019-02-12T09:32:37.102Z,4.87
2019-02-12T09:35:22.306Z,3.87
2019-02-12T09:38:29.921Z,2.30
2019-02-12T09:41:38.185Z,5.13
2019-02-12T09:44:52.815Z,2.17
2019-02-12T09:47:58.707Z,2.90
2019-02-12T09:51:18.702Z,1.40
2019-02-12T09:54:14.007Z,3.57
2019-02-12T09:57:26.823Z,2.00
2019-02-12T10:00:39.642Z,1.80
2019-02-12T10:03:37.411Z,5.37
2019-02-12T10:06:45.622Z,1.97
2019-02-12T10:09:53.476Z,1.80
2019-02-12T10:12:59.892Z,1.87
2019-02-12T10:15:54.284Z,3.70
2019-02-12T10:18:54.504Z,2.20
2019-02-12T10:22:17.156Z,4.07
2019-02-12T10:25:16.875Z,1.80
2019-02-12T10:28:24.978Z,2.03
2019-02-12T10:31:27.457Z,2.40
2019-02-12T10:33:57.828Z,1.60
2019-02-12T10:36:28.102Z,2.97
2019-02-12T10:38:58.384Z,2.00
2019-02-12T10:41:28.687Z,1.17
2019-02-12T10:43:58.971Z,1.67
2019-02-12T10:46:29.335Z,3.87
2019-02-12T10:48:59.627Z,4.83
2019-02-12T10:51:30.003Z,3.53
2019-02-12T10:54:00.544Z,2.97
2019-02-12T10:56:30.946Z,1.17
2019-02-12T10:59:01.228Z,1.70
2019-02-12T11:01:31.548Z,3.93
2019-02-12T11:04:01.887Z,2.23
2019-02-12T11:06:32.981Z,3.03
2019-02-12T11:09:04.888Z,3.30
2019-02-12T11:11:35.211Z,1.23
2019-02-12T11:14:05.515Z,1.40
2019-02-12T11:16:35.849Z,1.63
2019-02-12T11:19:06.368Z,3.90
2019-02-12T11:21:36.636Z,13.80
2019-02-12T11:24:06.990Z,2.40
2019-02-12T11:26:37.286Z,0.90
2019-02-12T11:29:07.543Z,2.07
2019-02-12T11:31:37.985Z,1.20
2019-02-12T11:34:08.335Z,1.27
2019-02-12T11:36:38.617Z,2.03
2019-02-12T11:39:09.019Z,3.00
2019-02-12T11:41:39.323Z,0.70
2019-02-12T11:44:09.682Z,1.73
2019-02-12T11:46:39.903Z,1.80
2019-02-12T11:49:10.199Z,2.13
2019-02-12T11:51:41.410Z,3.03
2019-02-12T11:54:11.890Z,3.00
2019-02-12T11:56:42.039Z,2.60
2019-02-12T11:59:12.372Z,2.10
2019-02-12T12:01:42.695Z,0.80
2019-02-12T12:04:13.011Z,2.07
2019-02-12T12:06:44.360Z,1.00
2019-02-12T12:09:14.716Z,0.97
2019-02-12T12:11:45.056Z,1.23
2019-02-12T12:14:15.328Z,2.83
2019-02-12T12:16:45.708Z,0.77
2019-02-12T12:19:15.926Z,1.23
2019-02-12T12:21:46.155Z,3.00
2019-02-12T12:24:16.451Z,1.37
2019-02-12T12:26:46.728Z,1.53
2019-02-12T12:29:17.070Z,0.80
2019-02-12T12:31:47.412Z,1.30
2019-02-12T12:34:17.670Z,1.03
2019-02-12T12:36:47.918Z,1.20
2019-02-12T12:39:18.323Z,2.60
2019-02-12T12:41:48.533Z,1.47
2019-02-12T12:44:19.092Z,6.03
2019-02-12T12:46:49.449Z,2.50
2019-02-12T12:49:19.639Z,1.37
2019-02-12T12:51:49.967Z,1.27
2019-02-12T12:54:20.320Z,2.77
2019-02-12T12:56:50.584Z,3.33
2019-02-12T12:59:20.813Z,6.57
2019-02-12T13:01:50.999Z,0.97
2019-02-12T13:04:21.308Z,1.73
2019-02-12T13:06:52.594Z,0.90
2019-02-12T13:09:22.911Z,0.97
2019-02-12T13:11:53.287Z,2.67
2019-02-12T13:14:23.710Z,2.70
2019-02-12T13:16:54.067Z,2.07
2019-02-12T13:19:24.312Z,1.13
2019-02-12T13:21:54.583Z,1.90
2019-02-12T13:24:25.107Z,1.63
2019-02-12T13:26:55.377Z,1.77
2019-02-12T13:29:25.668Z,1.70
2019-02-12T13:31:56.035Z,4.77
2019-02-12T13:34:26.271Z,2.03
2019-02-12T13:36:56.375Z,1.33
2019-02-12T13:39:26.700Z,1.23
2019-02-12T13:41:56.947Z,2.43
2019-02-12T13:44:27.291Z,1.33
2019-02-12T13:46:57.611Z,2.67
2019-02-12T13:49:27.881Z,2.10
2019-02-12T13:51:58.135Z,3.10
2019-02-12T13:54:28.619Z,1.43
2019-02-12T13:56:59.148Z,1.50
2019-02-12T13:59:29.440Z,2.47
2019-02-12T14:01:59.802Z,2.70
2019-02-12T14:04:30.595Z,1.00
2019-02-12T14:07:01.118Z,1.63
2019-02-12T14:09:33.130Z,2.17
2019-02-12T14:12:03.388Z,2.07
2019-02-12T14:14:34.122Z,2.03
2019-02-12T14:17:04.746Z,1.40
2019-02-12T14:19:35.044Z,1.62
2019-02-12T14:22:06.252Z,1.13
2019-02-12T14:24:37.208Z,4.73
2019-02-12T14:27:07.484Z,1.93
2019-02-12T14:29:39.131Z,1.73
2019-02-12T14:32:09.343Z,1.47
2019-02-12T14:34:40.981Z,1.03
2019-02-12T14:37:11.921Z,1.50
2019-02-12T14:39:42.254Z,2.80
2019-02-12T14:42:14.031Z,1.13
2019-02-12T14:44:45.369Z,1.17
2019-02-12T14:47:15.599Z,1.10
2019-02-12T14:50:04.777Z,0.70
2019-02-12T14:52:35.191Z,1.07
2019-02-12T14:55:05.807Z,1.63
2019-02-12T14:57:36.091Z,3.12
2019-02-12T15:00:07.174Z,1.90
2019-02-12T15:02:37.383Z,0.70
2019-02-12T15:05:07.972Z,1.20
2019-02-12T15:07:38.275Z,1.00
2019-02-12T15:10:09.535Z,1.97
2019-02-12T15:12:40.062Z,1.33
2019-02-12T15:15:10.886Z,1.37
2019-02-12T15:17:41.180Z,1.70
2019-02-12T15:20:11.770Z,3.40
2019-02-12T15:22:42.050Z,1.20
2019-02-12T15:25:12.691Z,3.33
2019-02-12T15:27:43.173Z,2.08
2019-02-12T15:30:14.357Z,1.55
2019-02-12T15:32:44.679Z,4.45
2019-02-12T15:35:15.120Z,2.12
2019-02-12T15:37:45.393Z,2.13
2019-02-12T15:40:15.959Z,3.07
2019-02-12T15:42:46.317Z,1.97
2019-02-12T15:45:17.325Z,1.92
2019-02-12T15:47:47.605Z,8.88
2019-02-12T15:50:17.926Z,1.87
2019-02-12T15:52:48.324Z,5.47
2019-02-12T15:55:18.715Z,2.33
2019-02-12T15:57:49.247Z,4.20
2019-02-12T16:00:20.542Z,4.83
2019-02-12T16:02:51.019Z,3.90
2019-02-12T16:05:21.549Z,1.57
2019-02-12T16:07:51.823Z,6.43
2019-02-12T16:10:22.058Z,2.80
2019-02-12T16:12:52.358Z,3.47
2019-02-12T16:15:24.705Z,3.20
2019-02-12T16:17:54.662Z,2.13
2019-02-12T16:20:24.954Z,4.33
2019-02-12T16:22:55.209Z,3.13
2019-02-12T16:25:25.376Z,1.13
2019-02-12T16:27:55.769Z,2.23
2019-02-12T16:30:26.060Z,2.77
2019-02-12T16:32:56.299Z,3.07
2019-02-12T16:35:26.714Z,4.80
2019-02-12T16:37:56.995Z,1.93
2019-02-12T16:40:27.414Z,4.53
2019-02-12T16:42:58.655Z,4.30
2019-02-12T16:45:32.963Z,2.97
2019-02-12T16:48:03.323Z,6.10
2019-02-12T16:50:33.654Z,2.80
2019-02-12T16:53:05.243Z,3.73
2019-02-12T16:55:35.505Z,4.10
2019-02-12T16:58:06.348Z,6.17
2019-02-12T17:00:37.242Z,5.57
2019-02-12T17:03:07.843Z,9.80
2019-02-12T17:05:41.923Z,9.77
2019-02-12T17:08:13.155Z,13.60
2019-02-12T17:10:52.699Z,10.10
2019-02-12T17:13:25.398Z,16.57
2019-02-12T17:15:57.665Z,11.93
2019-02-12T17:18:28.076Z,9.53
2019-02-12T17:20:58.302Z,9.17
2019-02-12T17:23:28.751Z,2.57
2019-02-12T17:25:59.039Z,6.27
2019-02-12T17:28:29.633Z,3.87
2019-02-12T17:30:59.823Z,3.87
2019-02-12T17:33:30.847Z,5.07
2019-02-12T17:36:03.027Z,2.80
2019-02-12T17:38:33.724Z,5.37
2019-02-12T17:41:04.463Z,4.40
2019-02-12T17:43:34.797Z,6.73
2019-02-12T17:46:05.732Z,10.33
2019-02-12T17:48:37.288Z,18.47
2019-02-12T17:51:08.772Z,14.10
2019-02-12T17:53:41.898Z,14.07
2019-02-12T17:56:13.120Z,10.97
2019-02-12T17:58:44.951Z,15.17
2019-02-12T18:01:16.852Z,15.80
2019-02-12T18:03:51.202Z,9.33
2019-02-12T18:06:22.994Z,3.33
2019-02-12T18:08:54.532Z,5.50
2019-02-12T18:11:26.161Z,3.00
2019-02-12T18:14:02.111Z,4.63
2019-02-12T18:16:34.147Z,3.67
2019-02-12T18:19:06.111Z,6.03
2019-02-12T18:21:37.930Z,6.00
2019-02-12T18:24:13.222Z,5.17
2019-02-12T18:26:50.868Z,4.30
2019-02-12T18:29:36.989Z,6.13
2019-02-12T18:32:13.339Z,15.97
2019-02-12T18:34:45.228Z,16.07
2019-02-12T18:37:17.108Z,17.17
2019-02-12T18:39:48.678Z,26.47
2019-02-12T18:42:20.447Z,21.43
2019-02-12T18:44:52.326Z,11.83
2019-02-12T18:47:23.739Z,6.63
2019-02-12T18:49:55.461Z,13.33
2019-02-12T18:52:27.245Z,9.47
2019-02-12T18:54:58.731Z,9.60
2019-02-12T18:57:30.460Z,6.30
2019-02-12T19:00:02.432Z,9.23
2019-02-12T19:02:33.858Z,7.27
2019-02-12T19:05:05.857Z,10.77
2019-02-12T19:07:42.749Z,10.60
2019-02-12T19:10:15.719Z,15.63
2019-02-12T19:12:47.405Z,32.47
2019-02-12T19:15:19.149Z,21.40
2019-02-12T19:17:54.369Z,19.93
2019-02-12T19:20:25.879Z,35.07
2019-02-12T19:23:00.752Z,35.13
2019-02-12T19:25:33.623Z,24.60
2019-02-12T19:28:05.215Z,13.23
2019-02-12T19:30:40.494Z,14.87
2019-02-12T19:33:12.227Z,28.00
2019-02-12T19:35:43.623Z,25.30
2019-02-12T19:38:15.403Z,23.03
2019-02-12T19:40:47.292Z,28.00
2019-02-12T19:43:19.186Z,28.83
2019-02-12T19:45:53.412Z,24.37
2019-02-12T19:48:25.265Z,26.60
2019-02-12T19:50:56.819Z,61.47
2019-02-12T19:53:28.765Z,23.33
2019-02-12T19:56:00.615Z,24.03
2019-02-12T19:58:32.255Z,24.57
2019-02-12T20:01:05.880Z,12.43
2019-02-12T20:03:38.848Z,13.50
2019-02-12T20:06:10.555Z,9.87
2019-02-12T20:08:42.060Z,10.00
2019-02-12T20:11:13.847Z,9.57
2019-02-12T20:13:45.656Z,10.53
2019-02-12T20:16:18.153Z,12.60
2019-02-12T20:18:49.888Z,9.13
2019-02-12T20:21:23.184Z,8.93
2019-02-12T20:23:54.907Z,10.40
2019-02-12T20:26:26.888Z,12.90
2019-02-12T20:28:58.674Z,10.87
2019-02-12T20:31:39.690Z,9.57
2019-02-12T20:34:16.605Z,28.37
2019-02-12T20:36:48.177Z,35.23
2019-02-12T20:39:20.190Z,50.90
2019-02-12T20:41:52.051Z,42.37
2019-02-12T20:44:23.499Z,44.70
2019-02-12T23:57:18.682Z,17.47
2019-02-12T23:59:48.793Z,14.53
